Flight Track Log - Related Links

Times and Time Zones

All times are in EDT time to prevent confusion due to time zone crossing. See the ASQ5941 flight status page for this flight to view local times or setup timezone preferences in your user account.

Time Position Orientation Groundspeed Altitude Reporting Facility
EDT Latitude Longitude Course Direction KTS MPH feet Rate Location/Type
Sun 03:02:45 PM 41.9333 -87.9167 90° East 167 192 2,000  Level Chicago TRACON
Sun 03:03:45 PM 41.9167 -87.8667 114° Southeast 194 223 3,900 829 Climbing Chicago TRACON
Sun 03:05:00 PM 42.0418 -87.4578 83° East  Level FlightAware Approximate
Sun 03:06:00 PM 42.0594 -87.3059 78° East  Level FlightAware Approximate
Sun 03:06:15 PM 41.8842 -87.6331 101° East 257 296 4,900  Level Chicago Center
Sun 03:07:00 PM 42.0825 -87.1552 78° East  Level FlightAware Approximate
Sun 03:07:17 PM 41.9306 -87.5542 52° Northeast 271 312 7,000  Level Chicago Center
Sun 03:08:00 PM 42.1000 -87.0039 90° East  Level FlightAware Approximate
Sun 03:08:19 PM 41.9667 -87.4594 63° Northeast 281 323 9,300  Level Chicago Center
Sun 03:09:21 PM 42.0031 -87.3608 64° Northeast 292 336 11,400 1,984 Climbing Chicago Center
Sun 03:10:23 PM 42.0408 -87.2575 64° Northeast 303 349 13,400 2,081 Climbing Chicago Center
Sun 03:11:25 PM 42.0861 -87.1331 64° Northeast 309 356 15,700 1,790 Climbing Chicago Center
Sun 03:12:27 PM 42.1133 -87.0142 73° East 333 383 17,100 968 Climbing Chicago Center
Sun 03:13:29 PM 42.1175 -86.8842 87° East 348 400 17,700 871 Climbing Chicago Center
Sun 03:14:31 PM 42.1233 -86.7481 87° East 360 414 18,900 1,210 Climbing Chicago Center
Sun 03:15:33 PM 42.1294 -86.5961 87° East 381 438 20,200 1,210 Climbing Chicago Center
Sun 03:16:35 PM 42.1333 -86.4492 88° East 392 451 21,400 1,161 Climbing Chicago Center
Sun 03:17:37 PM 42.1386 -86.2989 87° East 400 460 22,600 774 Climbing Chicago Center
Sun 03:18:39 PM 42.1433 -86.1436 88° East 411 473 23,000 194 Climbing Chicago Center
Sun 03:19:41 PM 42.1428 -85.9575 90° East 437 503 23,000 339 Level Chicago Center
Sun 03:20:43 PM 42.1417 -85.7867 90° East 453 521 23,700 919 Climbing Chicago Center
Sun 03:21:45 PM 42.1403 -85.6206 91° East 451 519 24,900 629 Climbing Chicago Center
Sun 03:22:47 PM 42.1386 -85.4561 91° East 445 512 25,000 48 Climbing Chicago Center
Sun 03:23:49 PM 42.1361 -85.2489 91° East 457 526 25,000  Level Chicago Center
Sun 03:24:51 PM 42.1339 -85.0725 91° East 469 540 25,000  Level Chicago Center
Sun 03:25:55 PM 42.1311 -84.8975 91° East 470 541 25,000  Level Chicago Center
Sun 03:26:52 PM 42.1292 -84.7272 91° East 461 531 25,000  Level Cleveland Center
Sun 03:27:52 PM 42.1247 -84.5533 92° East 461 531 25,000  Level Cleveland Center
Sun 03:28:52 PM 42.1350 -84.3775 85° East 461 531 25,000  Level Cleveland Center
Sun 03:29:52 PM 42.1514 -84.1853 83° East 461 531 25,000  Level Cleveland Center
Sun 03:30:52 PM 42.1714 -84.0125 81° East 461 531 25,000  Level Cleveland Center
Sun 03:31:52 PM 42.1911 -83.8400 81° East 461 531 25,000  Level Cleveland Center
Sun 03:32:52 PM 42.2106 -83.6642 81° East 461 531 25,000  Level Cleveland Center
Sun 03:33:52 PM 42.2256 -83.4883 83° East 461 531 25,000  Level Cleveland Center
Sun 03:34:52 PM 42.2297 -83.3144 88° East 461 531 25,000  Level Cleveland Center
Sun 03:35:52 PM 42.2314 -83.1575 89° East 461 531 25,000  Level Cleveland Center
Sun 03:36:52 PM 42.2308 -82.9836 90° East 461 531 25,000  Level Cleveland Center
Sun 03:37:52 PM 42.2322 -82.8069 89° East 461 531 25,000  Level Cleveland Center
Sun 03:38:52 PM 42.2333 -82.6331 89° East 461 531 25,000  Level Cleveland Center
Sun 03:39:54 PM 42.2322 -82.4564 90° East 461 531 25,000  Level Cleveland Center
Sun 03:40:52 PM 42.2289 -82.2797 91° East 461 531 25,000  Level Cleveland Center
Sun 03:41:52 PM 42.1956 -82.1161 105° East 461 531 25,000  Level Cleveland Center
Sun 03:42:52 PM 42.1625 -81.9472 105° East 461 531 25,000  Level Cleveland Center
Sun 03:43:52 PM 42.1247 -81.7617 105° East 461 531 25,000  Level Cleveland Center
Sun 03:44:52 PM 42.0931 -81.5961 104° East 460 529 25,000  Level Cleveland Center
Sun 03:45:52 PM 42.0903 -81.4197 91° East 460 529 25,000  Level Cleveland Center
Sun 03:46:52 PM 42.1019 -81.2436 85° East 460 529 25,000  Level Cleveland Center
Sun 03:47:52 PM 42.1111 -81.0703 86° East 460 529 25,000  Level Cleveland Center
Sun 03:48:52 PM 42.1200 -80.8967 86° East 465 535 25,000  Level Cleveland Center
Sun 03:49:52 PM 42.1267 -80.7175 87° East 465 535 25,000  Level Cleveland Center
Sun 03:50:52 PM 42.1331 -80.5608 87° East 465 535 25,000  Level Cleveland Center
Sun 03:51:52 PM 42.1433 -80.3872 85° East 465 535 25,000  Level Cleveland Center
Sun 03:52:52 PM 42.1492 -80.2078 87° East 465 535 25,000  Level Cleveland Center
Sun 03:53:52 PM 42.1567 -80.0314 87° East 465 535 25,000  Level Cleveland Center
Sun 03:54:52 PM 42.1642 -79.8547 87° East 465 535 25,000  Level Cleveland Center
Sun 03:55:52 PM 42.1711 -79.6783 87° East 465 535 25,000  Level Cleveland Center
Sun 03:56:52 PM 42.1739 -79.5017 89° East 470 541 25,000  Level Cleveland Center
Sun 03:57:52 PM 42.1825 -79.3222 86° East 470 541 25,000  Level Cleveland Center
Sun 03:58:52 PM 42.1844 -79.1428 89° East 476 548 25,000  Level Cleveland Center
Sun 03:59:52 PM 42.1508 -78.9756 105° East 476 548 25,000  Level Cleveland Center
Sun 04:00:52 PM 42.1108 -78.8058 108° East 470 541 25,000  Level Cleveland Center
Sun 04:01:52 PM 42.0664 -78.6364 109° East 470 541 25,000 -300 Level Cleveland Center
Sun 04:02:52 PM 42.0242 -78.4756 109° East 470 541 24,400 -700 Descending Cleveland Center
Sun 04:03:52 PM 41.9833 -78.3094 108° East 465 535 23,600 -700 Descending Cleveland Center
Sun 04:04:52 PM 41.9358 -78.1294 109° East 459 528 23,000 -216 Descending Cleveland Center
Sun 04:06:39 PM 41.8586 -77.8419 110° East 457 526 23,000  Level New York Center
Sun 04:07:40 PM 41.8031 -77.6911 116° Southeast 457 526 23,000  Level New York Center
Sun 04:08:42 PM 41.7428 -77.5431 119° Southeast 457 526 23,000  Level New York Center
Sun 04:09:39 PM 41.6942 -77.4075 116° Southeast 457 526 23,000  Level New York Center
Sun 04:10:40 PM 41.6722 -77.2414 100° East 440 506 23,000 -298 Level New York Center
Sun 04:11:40 PM 41.6564 -77.0706 97° East 445 512 22,400 -942 Descending New York Center
Sun 04:12:41 PM 41.6397 -76.9108 98° East 445 512 21,100 -1,835 Descending New York Center
Sun 04:13:41 PM 41.6231 -76.7483 98° East 445 512 18,700 -3,100 Descending New York Center
Sun 04:14:41 PM 41.6019 -76.5828 100° East 423 487 14,900 -3,277 Descending New York Center
Sun 04:15:40 PM 41.5881 -76.4428 98° East 398 458 12,200 -2,471 Descending New York Center
Sun 04:16:40 PM 41.5744 -76.3308 99° East 355 409 10,000 -1,664 Descending New York Center
Sun 04:17:39 PM 41.5644 -76.2328 98° East 297 342 8,900 -1,664 Descending New York Center
Sun 04:18:39 PM 41.5464 -76.1289 103° East 257 296 6,700 -1,785 Descending New York Center
Sun 04:19:40 PM 41.5081 -76.0508 123° Southeast 246 283 5,300 -1,041 Descending New York Center
Sun 04:20:40 PM 41.4717 -75.9844 126° Southeast 246 283 4,600 -595 Descending New York Center
Sun 04:21:41 PM 41.4108 -75.9464 155° Southeast 241 277 4,100 -295 Descending New York Center
Sun 04:22:42 PM 41.3536 -75.9172 159° South 230 265 4,000  Descending New York Center
Sun 04:23:39 PM 41.2944 -75.8878 159° South 224 258 4,100 105 Climbing New York Center

Login

Don't have an account? Register now (free) for customized features, flight alerts, and more!